createdAt,value
2023-04-23T00:00:41.400Z,20.67
2023-04-23T00:03:12.986Z,22.42
2023-04-23T00:05:42.317Z,20.85
2023-04-23T00:08:10.983Z,22.08
2023-04-23T00:10:38.578Z,21.38
2023-04-23T00:13:07.662Z,16.83
2023-04-23T00:15:35.191Z,23.45
2023-04-23T00:18:02.398Z,21.75
2023-04-23T00:20:29.716Z,20.38
2023-04-23T00:22:56.963Z,21.45
2023-04-23T00:25:24.190Z,20.65
2023-04-23T00:27:51.483Z,17.95
2023-04-23T00:30:19.225Z,20.55
2023-04-23T00:32:47.771Z,21.25
2023-04-23T00:35:18.132Z,25.48
2023-04-23T00:37:45.576Z,18.23
2023-04-23T00:40:13.534Z,21.80
2023-04-23T00:42:41.035Z,20.95
2023-04-23T00:45:09.828Z,15.93
2023-04-23T00:47:38.252Z,23.10
2023-04-23T00:50:06.666Z,20.90
2023-04-23T00:52:34.745Z,23.08
2023-04-23T00:55:02.486Z,20.25
2023-04-23T00:57:32.123Z,21.02
2023-04-23T00:59:59.975Z,23.27
2023-04-23T01:02:30.155Z,21.27
2023-04-23T01:04:58.845Z,18.85
2023-04-23T01:07:27.597Z,15.77
2023-04-23T01:09:55.520Z,16.63
2023-04-23T01:12:23.283Z,22.42
2023-04-23T01:14:50.747Z,19.00
2023-04-23T01:17:18.033Z,19.95
2023-04-23T01:19:45.681Z,17.30
2023-04-23T01:22:17.218Z,19.63
2023-04-23T01:24:45.152Z,21.17
2023-04-23T01:27:12.413Z,16.58
2023-04-23T01:29:40.501Z,20.77
2023-04-23T01:32:08.468Z,20.85
2023-04-23T01:34:41.442Z,23.30
2023-04-23T01:37:09.971Z,19.60
2023-04-23T01:39:37.255Z,23.95
2023-04-23T01:42:07.143Z,23.45
2023-04-23T01:44:34.633Z,20.70
2023-04-23T01:47:03.592Z,19.25
2023-04-23T01:49:32.813Z,19.77
2023-04-23T01:52:00.066Z,19.83
2023-04-23T01:54:27.182Z,15.32
2023-04-23T01:56:56.022Z,19.27
2023-04-23T01:59:24.687Z,20.58
2023-04-23T02:01:52.210Z,17.75
2023-04-23T02:04:19.942Z,17.58
2023-04-23T02:06:49.690Z,20.10
2023-04-23T02:09:17.342Z,17.50
2023-04-23T02:11:44.627Z,19.92
2023-04-23T02:14:12.504Z,16.98
2023-04-23T02:16:41.045Z,19.13
2023-04-23T02:19:08.533Z,15.13
2023-04-23T02:21:35.799Z,13.45
2023-04-23T02:24:05.382Z,19.38
2023-04-23T02:26:32.901Z,17.23
2023-04-23T02:29:00.281Z,21.48
2023-04-23T02:31:27.746Z,18.23
2023-04-23T02:33:55.533Z,21.48
2023-04-23T02:36:23.457Z,20.42
2023-04-23T02:38:51.417Z,20.25
2023-04-23T02:41:18.847Z,15.77
2023-04-23T02:43:46.168Z,12.55
2023-04-23T02:46:13.429Z,15.60
2023-04-23T02:48:41.954Z,11.02
2023-04-23T02:51:12.535Z,15.68
2023-04-23T02:53:39.919Z,18.00
2023-04-23T02:56:07.834Z,25.60
2023-04-23T02:58:35.772Z,14.38
2023-04-23T03:01:04.330Z,17.35
2023-04-23T03:03:33.474Z,18.20
2023-04-23T03:06:03.546Z,16.20
2023-04-23T03:08:30.921Z,18.17
2023-04-23T03:10:58.624Z,19.08
2023-04-23T03:13:26.962Z,13.43
2023-04-23T03:15:56.538Z,19.92
2023-04-23T03:18:24.105Z,18.45
2023-04-23T03:20:54.233Z,12.88
2023-04-23T03:23:21.607Z,16.85
2023-04-23T03:25:49.389Z,15.27
2023-04-23T03:28:16.983Z,13.52
2023-04-23T03:30:45.245Z,15.57
2023-04-23T03:33:15.849Z,15.90
2023-04-23T03:35:43.405Z,12.05
2023-04-23T03:38:16.405Z,14.48
2023-04-23T03:40:45.114Z,12.15
2023-04-23T03:43:13.084Z,13.77
2023-04-23T03:46:12.549Z,12.15
2023-04-23T03:48:42.213Z,12.80
2023-04-23T03:51:16.153Z,13.32
2023-04-23T03:53:46.380Z,10.57
2023-04-23T03:56:32.487Z,9.02
2023-04-23T03:59:27.403Z,10.45
2023-04-23T04:01:58.506Z,10.25
2023-04-23T04:04:26.990Z,13.82
2023-04-23T04:06:56.780Z,12.45
2023-04-23T04:09:28.017Z,13.68
2023-04-23T04:11:55.673Z,13.88
2023-04-23T04:14:23.708Z,13.27
2023-04-23T04:16:51.313Z,11.85
2023-04-23T04:19:18.671Z,12.43
2023-04-23T04:21:46.172Z,16.92
2023-04-23T04:24:13.380Z,11.40
2023-04-23T04:26:41.778Z,10.10
2023-04-23T04:29:10.611Z,9.30
2023-04-23T04:31:38.390Z,12.38
2023-04-23T04:34:07.290Z,10.88
2023-04-23T04:36:35.717Z,11.07
2023-04-23T04:39:03.590Z,9.30
2023-04-23T04:41:30.811Z,10.95
2023-04-23T04:43:58.728Z,10.25
2023-04-23T04:46:32.910Z,8.48
2023-04-23T04:49:00.349Z,9.63
2023-04-23T04:51:28.601Z,7.57
2023-04-23T04:53:56.834Z,10.15
2023-04-23T04:56:25.855Z,11.23
2023-04-23T04:58:53.319Z,10.23
2023-04-23T05:01:21.834Z,14.23
2023-04-23T05:03:49.569Z,12.82
2023-04-23T05:06:17.242Z,11.13
2023-04-23T05:08:48.227Z,13.88
2023-04-23T05:11:19.996Z,8.25
2023-04-23T05:13:48.281Z,19.85
2023-04-23T05:16:15.827Z,8.73
2023-04-23T05:18:43.321Z,8.63
2023-04-23T05:21:10.844Z,6.47
2023-04-23T05:23:38.280Z,9.18
2023-04-23T05:26:05.498Z,9.50
2023-04-23T05:28:32.900Z,6.63
2023-04-23T05:31:00.272Z,10.05
2023-04-23T05:33:33.501Z,8.63
2023-04-23T05:36:08.371Z,9.18
2023-04-23T05:38:36.105Z,8.38
2023-04-23T05:41:03.335Z,10.48
2023-04-23T05:43:30.596Z,6.18
2023-04-23T05:45:57.993Z,9.25
2023-04-23T05:48:25.314Z,13.30
2023-04-23T05:50:52.794Z,9.90
2023-04-23T05:53:20.139Z,12.27
2023-04-23T05:55:47.740Z,12.85
2023-04-23T05:58:15.780Z,8.82
2023-04-23T06:00:43.066Z,8.25
2023-04-23T06:03:10.466Z,10.43
2023-04-23T06:05:38.353Z,9.75
2023-04-23T06:08:05.642Z,14.88
2023-04-23T06:10:33.680Z,11.25
2023-04-23T06:13:01.072Z,11.95
2023-04-23T06:15:28.434Z,13.70
2023-04-23T06:17:56.108Z,16.02
2023-04-23T06:20:23.700Z,12.48
2023-04-23T06:22:50.917Z,10.25
2023-04-23T06:25:18.155Z,10.60
2023-04-23T06:27:45.609Z,9.57
2023-04-23T06:30:19.295Z,10.48
2023-04-23T06:32:46.931Z,11.55
2023-04-23T06:35:14.168Z,10.68
2023-04-23T06:37:41.366Z,9.23
2023-04-23T06:40:09.024Z,11.05
2023-04-23T06:42:36.966Z,7.10
2023-04-23T06:45:17.567Z,13.63
2023-04-23T06:47:45.407Z,5.95
2023-04-23T06:50:12.998Z,9.52
2023-04-23T06:52:40.590Z,10.13
2023-04-23T06:55:08.888Z,12.10
2023-04-23T06:57:36.237Z,10.75
2023-04-23T07:00:06.594Z,8.30
2023-04-23T07:02:38.134Z,10.90
2023-04-23T07:05:05.875Z,14.55
2023-04-23T07:07:33.129Z,11.77
2023-04-23T07:10:00.690Z,8.77
2023-04-23T07:12:28.007Z,6.82
2023-04-23T07:14:55.590Z,6.45
2023-04-23T07:17:22.843Z,13.93
2023-04-23T07:19:50.708Z,14.07
2023-04-23T07:22:18.209Z,11.63
2023-04-23T07:24:45.527Z,9.30
2023-04-23T07:27:12.691Z,8.50
2023-04-23T07:29:39.883Z,9.05
2023-04-23T07:32:07.546Z,8.77
2023-04-23T07:34:38.069Z,10.68
2023-04-23T07:37:05.903Z,9.52
2023-04-23T07:39:33.583Z,6.85
2023-04-23T07:42:02.128Z,8.00
2023-04-23T07:44:29.421Z,11.05
2023-04-23T07:46:56.700Z,10.02
2023-04-23T07:49:24.461Z,10.82
2023-04-23T07:51:51.925Z,7.53
2023-04-23T07:54:20.418Z,9.00
2023-04-23T07:56:47.756Z,9.85
2023-04-23T07:59:18.445Z,3.22
2023-04-23T08:01:45.797Z,9.02
2023-04-23T08:04:14.119Z,6.35
2023-04-23T08:06:52.014Z,8.70
2023-04-23T08:09:19.823Z,10.07
2023-04-23T08:11:48.342Z,8.77
2023-04-23T08:14:22.404Z,7.72
2023-04-23T08:16:52.835Z,11.13
2023-04-23T08:19:20.135Z,14.00
2023-04-23T08:21:47.606Z,8.10
2023-04-23T08:24:14.968Z,5.60
2023-04-23T08:26:42.273Z,7.95
2023-04-23T08:29:10.978Z,10.00
2023-04-23T08:31:39.075Z,6.53
2023-04-23T08:34:06.483Z,13.52
2023-04-23T08:36:33.799Z,10.48
2023-04-23T08:39:01.638Z,7.30
2023-04-23T08:41:42.715Z,6.82
2023-04-23T08:44:22.691Z,7.35
2023-04-23T08:46:54.254Z,6.80
2023-04-23T08:49:21.830Z,7.93
2023-04-23T08:51:50.273Z,9.38
2023-04-23T08:54:27.180Z,6.47
2023-04-23T08:56:58.792Z,8.38
2023-04-23T08:59:28.814Z,13.55
2023-04-23T09:01:56.841Z,9.18
2023-04-23T09:04:25.653Z,6.70
2023-04-23T09:06:53.150Z,6.82
2023-04-23T09:09:23.925Z,6.70
2023-04-23T09:11:54.118Z,7.97
2023-04-23T09:14:25.639Z,10.48
2023-04-23T09:16:53.864Z,9.15
2023-04-23T09:19:21.589Z,11.27
2023-04-23T09:21:48.854Z,12.25
2023-04-23T09:24:18.002Z,12.57
2023-04-23T09:26:47.230Z,8.75
2023-04-23T09:29:19.092Z,7.95
2023-04-23T09:31:52.005Z,8.00
2023-04-23T09:34:21.124Z,10.07
2023-04-23T09:36:53.267Z,10.05
2023-04-23T09:39:24.057Z,10.05
2023-04-23T09:41:54.459Z,7.93
2023-04-23T09:44:23.076Z,9.02
2023-04-23T09:46:51.063Z,11.55
2023-04-23T09:49:18.380Z,6.28
2023-04-23T09:51:49.455Z,10.20
2023-04-23T09:54:18.709Z,5.20
2023-04-23T09:56:51.412Z,12.73
2023-04-23T09:59:45.357Z,8.00
2023-04-23T10:02:14.023Z,7.70
2023-04-23T10:04:42.244Z,6.45
2023-04-23T10:07:19.688Z,9.20
2023-04-23T10:09:48.349Z,15.60
2023-04-23T10:12:36.662Z,6.40
2023-04-23T10:15:05.895Z,12.57
2023-04-23T10:17:36.312Z,11.90
2023-04-23T10:20:05.275Z,5.97
2023-04-23T10:22:34.787Z,7.90
2023-04-23T10:25:09.018Z,11.25
2023-04-23T10:27:51.018Z,8.68
2023-04-23T10:30:20.446Z,7.20
2023-04-23T10:32:49.851Z,8.25
2023-04-23T10:35:17.753Z,5.50
2023-04-23T10:37:46.859Z,6.55
2023-04-23T10:40:18.837Z,11.05
2023-04-23T10:42:47.568Z,6.65
2023-04-23T10:47:47.044Z,10.07
2023-04-23T10:50:21.355Z,8.25
2023-04-23T10:52:53.341Z,6.57
2023-04-23T10:55:30.106Z,8.68
2023-04-23T10:58:05.881Z,4.95
2023-04-23T11:00:45.495Z,7.75
2023-04-23T11:03:32.656Z,8.43
2023-04-23T11:06:04.539Z,7.68
2023-04-23T11:08:35.380Z,9.68
2023-04-23T11:11:07.937Z,8.05
2023-04-23T11:13:35.516Z,8.88
2023-04-23T11:16:22.137Z,5.28
2023-04-23T11:18:57.470Z,8.35
2023-04-23T11:22:00.113Z,7.22
2023-04-23T11:24:50.783Z,8.23
2023-04-23T11:27:19.860Z,7.05
2023-04-23T11:29:47.337Z,8.13
2023-04-23T11:32:17.506Z,6.75
2023-04-23T11:34:46.931Z,5.28
2023-04-23T11:37:15.775Z,6.57
2023-04-23T11:39:44.807Z,5.72
2023-04-23T11:42:16.354Z,5.68
2023-04-23T11:44:45.191Z,4.72
2023-04-23T11:47:14.831Z,4.70
2023-04-23T11:49:44.692Z,6.28
2023-04-23T11:52:14.435Z,8.02
2023-04-23T11:54:42.185Z,10.35
2023-04-23T11:57:10.612Z,8.32
2023-04-23T11:59:38.207Z,7.57
2023-04-23T12:02:05.764Z,5.22
2023-04-23T12:04:33.821Z,4.88
2023-04-23T12:07:01.347Z,6.30
2023-04-23T12:09:31.443Z,5.38
2023-04-23T12:11:58.890Z,5.70
2023-04-23T12:14:31.172Z,8.77
2023-04-23T12:17:08.862Z,5.55
2023-04-23T12:19:36.601Z,7.30
2023-04-23T12:22:04.601Z,8.98
2023-04-23T12:24:49.136Z,11.70
2023-04-23T12:27:20.505Z,10.02
2023-04-23T12:29:48.474Z,12.23
2023-04-23T12:32:16.040Z,6.03
2023-04-23T12:34:53.769Z,6.97
2023-04-23T12:37:30.458Z,5.57
2023-04-23T12:39:59.498Z,7.70
2023-04-23T12:42:27.296Z,9.93
2023-04-23T12:44:57.565Z,7.15
2023-04-23T12:47:24.951Z,8.70
2023-04-23T12:49:54.256Z,3.63
2023-04-23T12:52:21.820Z,6.45
2023-04-23T12:54:52.804Z,9.02
2023-04-23T12:57:23.397Z,6.72
2023-04-23T12:59:51.510Z,7.68
2023-04-23T13:02:19.020Z,12.55
2023-04-23T13:04:46.379Z,5.65
2023-04-23T13:07:14.036Z,6.53
2023-04-23T13:09:41.429Z,9.35
2023-04-23T13:12:08.689Z,11.32
2023-04-23T13:14:36.195Z,5.68
2023-04-23T13:17:04.081Z,8.02
2023-04-23T13:19:31.704Z,4.88
2023-04-23T13:21:59.027Z,4.65
2023-04-23T13:24:26.145Z,8.15
2023-04-23T13:26:53.657Z,5.53
2023-04-23T13:29:20.919Z,10.68
2023-04-23T13:31:48.212Z,7.30
2023-04-23T13:34:15.389Z,3.38
2023-04-23T13:36:43.123Z,6.53
2023-04-23T13:39:12.728Z,19.63
2023-04-23T13:41:42.969Z,5.82
2023-04-23T13:44:10.544Z,5.25
2023-04-23T13:46:38.888Z,11.40
2023-04-23T13:49:06.461Z,5.85
2023-04-23T13:51:35.825Z,3.85
2023-04-23T13:54:04.271Z,7.93
2023-04-23T13:56:32.271Z,7.72
2023-04-23T13:59:15.546Z,5.13
2023-04-23T14:01:49.686Z,5.43
2023-04-23T14:04:19.070Z,8.57
2023-04-23T14:06:46.291Z,5.25
2023-04-23T14:09:13.696Z,5.85
2023-04-23T14:11:41.703Z,4.80
2023-04-23T14:14:09.357Z,6.63
2023-04-23T14:16:36.705Z,7.65
2023-04-23T14:19:04.096Z,3.95
2023-04-23T14:21:31.446Z,2.97
2023-04-23T14:24:10.688Z,5.35
2023-04-23T14:26:48.113Z,6.57
2023-04-23T14:29:45.062Z,8.18
2023-04-23T14:32:12.930Z,3.90
2023-04-23T14:34:40.200Z,8.20
2023-04-23T14:37:07.871Z,5.40
2023-04-23T14:39:35.131Z,4.30
2023-04-23T14:42:02.949Z,7.55
2023-04-23T14:44:30.178Z,7.45
2023-04-23T14:46:57.462Z,7.18
2023-04-23T14:49:25.143Z,4.75
2023-04-23T14:51:55.870Z,3.78
2023-04-23T14:54:23.447Z,9.65
2023-04-23T14:56:51.561Z,8.02
2023-04-23T14:59:19.022Z,7.18
2023-04-23T15:01:46.456Z,11.13
2023-04-23T15:04:13.829Z,6.57
2023-04-23T15:06:41.338Z,4.32
2023-04-23T15:09:09.275Z,6.45
2023-04-23T15:11:38.765Z,9.40
2023-04-23T15:14:23.299Z,5.65
2023-04-23T15:16:50.725Z,5.38
2023-04-23T15:19:19.113Z,4.80
2023-04-23T15:21:47.455Z,5.53
2023-04-23T15:24:15.896Z,4.50
2023-04-23T15:26:43.936Z,7.53
2023-04-23T15:29:11.529Z,7.47
2023-04-23T15:31:39.020Z,5.28
2023-04-23T15:34:09.180Z,6.45
2023-04-23T15:36:38.231Z,7.18
2023-04-23T15:39:07.262Z,5.13
2023-04-23T15:41:39.574Z,5.20
2023-04-23T15:44:11.799Z,4.85
2023-04-23T15:46:39.558Z,4.22
2023-04-23T15:49:06.756Z,5.18
2023-04-23T15:51:34.189Z,4.78
2023-04-23T15:54:02.764Z,7.25
2023-04-23T15:56:30.052Z,4.32
2023-04-23T15:58:57.284Z,5.45
2023-04-23T16:01:27.039Z,7.78
2023-04-23T16:04:09.581Z,6.18
2023-04-23T16:06:37.989Z,9.20
2023-04-23T16:09:08.341Z,9.60
2023-04-23T16:11:39.390Z,5.78
2023-04-23T16:14:09.102Z,8.48
2023-04-23T16:16:38.206Z,7.47
2023-04-23T16:19:06.553Z,4.53
2023-04-23T16:21:33.895Z,6.68
2023-04-23T16:24:01.472Z,7.13
2023-04-23T16:26:29.353Z,12.13
2023-04-23T16:29:16.782Z,8.70
2023-04-23T16:31:45.190Z,5.07
2023-04-23T16:34:12.442Z,6.82
2023-04-23T16:36:39.789Z,7.88
2023-04-23T16:39:07.170Z,11.43
2023-04-23T16:41:34.345Z,7.07
2023-04-23T16:44:01.585Z,5.18
2023-04-23T16:46:31.224Z,7.80
2023-04-23T16:48:59.246Z,8.00
2023-04-23T16:51:27.054Z,7.25
2023-04-23T16:53:54.648Z,5.20
2023-04-23T16:56:22.856Z,4.28
2023-04-23T16:58:50.159Z,10.20
2023-04-23T17:01:17.982Z,7.45
2023-04-23T17:03:46.173Z,7.15
2023-04-23T17:06:30.829Z,10.13
2023-04-23T17:11:27.425Z,8.25
2023-04-23T17:13:55.584Z,6.20
2023-04-23T17:16:26.766Z,6.50
2023-04-23T17:18:55.018Z,8.88
2023-04-23T17:21:22.960Z,7.78
2023-04-23T17:23:50.388Z,15.38
2023-04-23T17:26:17.583Z,12.65
2023-04-23T17:28:44.949Z,9.20
2023-04-23T17:31:12.308Z,12.02
2023-04-23T17:33:40.051Z,8.60
2023-04-23T17:36:07.355Z,7.38
2023-04-23T17:38:34.633Z,9.95
2023-04-23T17:41:01.885Z,9.82
2023-04-23T17:43:34.989Z,6.15
2023-04-23T17:46:02.991Z,8.98
2023-04-23T17:48:30.592Z,5.93
2023-04-23T17:50:57.935Z,10.88
2023-04-23T17:53:25.229Z,8.50
2023-04-23T17:55:52.453Z,6.30
2023-04-23T17:58:21.413Z,8.82
2023-04-23T18:00:48.859Z,7.78
2023-04-23T18:03:18.450Z,8.85
2023-04-23T18:05:46.211Z,6.28
2023-04-23T18:08:16.324Z,8.93
2023-04-23T18:10:46.189Z,9.18
2023-04-23T18:13:13.864Z,6.28
2023-04-23T18:15:42.165Z,11.90
2023-04-23T18:18:09.613Z,7.40
2023-04-23T18:20:38.926Z,8.38
2023-04-23T18:23:06.701Z,6.82
2023-04-23T18:25:34.375Z,7.93
2023-04-23T18:28:01.900Z,7.70
2023-04-23T18:30:29.342Z,7.00
2023-04-23T18:33:24.936Z,9.43
2023-04-23T18:35:56.448Z,9.15
2023-04-23T18:38:29.128Z,7.18
2023-04-23T18:40:59.078Z,13.85
2023-04-23T18:43:28.382Z,5.97
2023-04-23T18:45:55.861Z,9.82
2023-04-23T18:48:35.351Z,10.48
2023-04-23T18:51:19.030Z,9.02
2023-04-23T18:53:46.868Z,9.63
2023-04-23T18:56:14.256Z,11.82
2023-04-23T18:58:41.430Z,9.88
2023-04-23T19:01:11.662Z,9.95
2023-04-23T19:03:39.847Z,10.20
2023-04-23T19:06:08.005Z,21.25
2023-04-23T19:08:36.057Z,32.03
2023-04-23T19:11:04.295Z,26.20
2023-04-23T19:13:31.801Z,29.73
2023-04-23T19:16:00.193Z,23.45
2023-04-23T19:18:27.976Z,21.17
2023-04-23T19:20:55.479Z,14.77
2023-04-23T19:23:22.944Z,16.83
2023-04-23T19:25:50.122Z,12.77
2023-04-23T19:28:17.457Z,14.68
2023-04-23T19:30:44.664Z,16.35
2023-04-23T19:33:12.274Z,21.67
2023-04-23T19:35:40.529Z,21.23
2023-04-23T19:38:08.414Z,13.32
2023-04-23T19:40:35.827Z,10.85
2023-04-23T19:43:03.501Z,16.65
2023-04-23T19:45:31.741Z,12.52
2023-04-23T19:48:00.022Z,11.52
2023-04-23T19:50:27.407Z,15.55
2023-04-23T19:52:54.584Z,12.15
2023-04-23T19:55:26.931Z,9.35
2023-04-23T19:57:55.214Z,14.15
2023-04-23T20:00:23.811Z,13.50
2023-04-23T20:02:55.539Z,10.48
2023-04-23T20:05:23.027Z,12.27
2023-04-23T20:07:50.425Z,18.58
2023-04-23T20:10:17.827Z,15.60
2023-04-23T20:12:45.535Z,18.00
2023-04-23T20:15:12.916Z,14.70
2023-04-23T20:17:40.984Z,17.55
2023-04-23T20:20:10.773Z,22.83
2023-04-23T20:22:38.264Z,19.90
2023-04-23T20:25:06.155Z,19.52
2023-04-23T20:27:34.420Z,19.88
2023-04-23T20:30:06.666Z,16.92
2023-04-23T20:32:34.383Z,20.33
2023-04-23T20:35:02.288Z,18.17
2023-04-23T20:37:31.700Z,20.42
2023-04-23T20:39:59.050Z,15.20
2023-04-23T20:42:29.090Z,16.90
2023-04-23T20:44:56.656Z,21.33
2023-04-23T20:47:23.935Z,28.77
2023-04-23T20:49:51.894Z,27.00
2023-04-23T20:52:19.661Z,18.80
2023-04-23T20:54:46.973Z,21.83
2023-04-23T20:57:14.316Z,22.65
2023-04-23T20:59:41.952Z,15.40
2023-04-23T21:02:13.042Z,24.33
2023-04-23T21:04:41.088Z,17.27
2023-04-23T21:07:08.512Z,18.60
2023-04-23T21:09:35.910Z,18.65
2023-04-23T21:12:03.447Z,19.77
2023-04-23T21:14:31.769Z,18.27
2023-04-23T21:16:59.073Z,22.60
2023-04-23T21:19:26.467Z,16.63
2023-04-23T21:21:53.662Z,22.65
2023-04-23T21:24:22.055Z,16.52
2023-04-23T21:26:49.405Z,22.15
2023-04-23T21:29:17.677Z,19.27
2023-04-23T21:31:50.923Z,26.02
2023-04-23T21:34:19.706Z,31.45
2023-04-23T21:36:47.406Z,30.92
2023-04-23T21:39:14.742Z,22.85
2023-04-23T21:41:42.303Z,21.23
2023-04-23T21:44:09.584Z,22.00
2023-04-23T21:46:36.858Z,21.00
2023-04-23T21:49:04.312Z,19.35
2023-04-23T21:51:37.164Z,24.33
2023-04-23T21:54:06.032Z,25.00
2023-04-23T21:56:34.190Z,12.07
2023-04-23T21:59:02.227Z,14.43
2023-04-23T22:01:29.792Z,14.77
2023-04-23T22:03:58.386Z,10.73
2023-04-23T22:06:25.836Z,16.80
2023-04-23T22:08:54.679Z,9.73
2023-04-23T22:11:22.723Z,9.05
2023-04-23T22:13:49.944Z,11.48
2023-04-23T22:16:27.603Z,13.32
2023-04-23T22:18:59.382Z,9.07
2023-04-23T22:21:26.844Z,8.75
2023-04-23T22:23:54.059Z,9.50
2023-04-23T22:26:21.815Z,10.30
2023-04-23T22:28:50.364Z,7.47
2023-04-23T22:31:18.581Z,15.68
2023-04-23T22:33:45.879Z,8.35
2023-04-23T22:36:14.051Z,11.73
2023-04-23T22:38:41.373Z,11.93
2023-04-23T22:41:08.742Z,8.50
2023-04-23T22:43:35.973Z,9.13
2023-04-23T22:46:03.420Z,11.82
2023-04-23T22:48:30.989Z,8.48
2023-04-23T22:50:59.210Z,6.38
2023-04-23T22:53:26.640Z,7.05
2023-04-23T22:55:53.981Z,10.25
2023-04-23T22:58:21.494Z,11.23
2023-04-23T23:00:48.770Z,7.28
2023-04-23T23:03:16.556Z,8.95
2023-04-23T23:05:44.203Z,7.53
2023-04-23T23:08:11.419Z,11.27
2023-04-23T23:10:38.675Z,11.95
2023-04-23T23:13:06.058Z,7.18
2023-04-23T23:15:33.269Z,8.30
2023-04-23T23:18:00.489Z,9.20
2023-04-23T23:20:27.918Z,9.50
2023-04-23T23:22:55.447Z,8.07
2023-04-23T23:25:22.952Z,7.30
2023-04-23T23:27:50.221Z,9.77
2023-04-23T23:30:17.489Z,8.45
2023-04-23T23:32:44.836Z,13.68
2023-04-23T23:35:12.098Z,10.02
2023-04-23T23:37:39.299Z,8.90
2023-04-23T23:40:07.675Z,9.50
2023-04-23T23:42:35.053Z,6.15
2023-04-23T23:45:02.240Z,9.38
2023-04-23T23:47:31.601Z,11.55
2023-04-23T23:49:59.395Z,8.93
2023-04-23T23:52:26.747Z,9.20
2023-04-23T23:54:54.232Z,7.32
2023-04-23T23:57:21.503Z,6.13
2023-04-23T23:59:48.975Z,4.65
